createdAt,value
2023-04-14T00:01:50.112Z,18.75
2023-04-14T00:04:17.050Z,24.45
2023-04-14T00:06:43.945Z,19.63
2023-04-14T00:09:10.924Z,20.50
2023-04-14T00:11:37.679Z,17.73
2023-04-14T00:14:04.383Z,28.95
2023-04-14T00:16:31.087Z,18.45
2023-04-14T00:18:57.861Z,11.30
2023-04-14T00:21:24.697Z,14.60
2023-04-14T00:23:51.365Z,18.30
2023-04-14T00:26:19.049Z,11.45
2023-04-14T00:28:45.679Z,16.17
2023-04-14T00:31:12.676Z,16.23
2023-04-14T00:33:41.636Z,17.92
2023-04-14T00:36:08.375Z,19.48
2023-04-14T00:38:34.979Z,8.55
2023-04-14T00:41:01.663Z,11.63
2023-04-14T00:43:28.443Z,21.60
2023-04-14T00:46:08.754Z,10.63
2023-04-14T00:48:36.020Z,21.45
2023-04-14T00:51:03.752Z,26.77
2023-04-14T00:53:31.814Z,15.07
2023-04-14T00:55:59.761Z,37.78
2023-04-14T00:58:26.638Z,48.67
2023-04-14T01:00:55.580Z,45.58
2023-04-14T01:03:24.460Z,49.60
2023-04-14T01:05:51.655Z,29.85
2023-04-14T01:08:19.535Z,34.47
2023-04-14T01:11:09.372Z,35.60
2023-04-14T01:14:01.484Z,38.08
2023-04-14T01:16:38.824Z,23.60
2023-04-14T01:19:06.174Z,13.20
2023-04-14T01:21:41.376Z,22.35
2023-04-14T01:24:49.732Z,39.95
2023-04-14T01:27:34.211Z,19.80
2023-04-14T01:30:10.980Z,52.40
2023-04-14T01:32:44.300Z,56.92
2023-04-14T01:35:14.670Z,36.70
2023-04-14T01:37:54.175Z,27.05
2023-04-14T01:40:22.776Z,17.85
2023-04-14T01:42:59.460Z,11.70
2023-04-14T01:45:30.751Z,28.08
2023-04-14T01:47:58.560Z,19.88
2023-04-14T01:50:27.105Z,40.45
2023-04-14T01:52:54.782Z,33.40
2023-04-14T01:55:23.098Z,46.13
2023-04-14T01:57:52.264Z,45.80
2023-04-14T02:00:21.379Z,44.08
2023-04-14T02:02:52.301Z,45.00
2023-04-14T02:05:21.253Z,47.15
2023-04-14T02:07:49.518Z,40.58
2023-04-14T02:10:19.710Z,28.48
2023-04-14T02:12:48.369Z,21.38
2023-04-14T02:15:17.289Z,13.93
2023-04-14T02:17:48.394Z,19.40
2023-04-14T02:20:15.905Z,25.88
2023-04-14T02:22:42.907Z,16.73
2023-04-14T02:25:10.314Z,17.17
2023-04-14T02:27:47.973Z,18.67
2023-04-14T02:30:19.465Z,20.48
2023-04-14T02:32:50.996Z,12.02
2023-04-14T02:35:25.013Z,11.05
2023-04-14T02:37:56.188Z,14.63
2023-04-14T02:40:30.973Z,13.68
2023-04-14T02:43:13.461Z,18.45
2023-04-14T02:48:12.924Z,13.52
2023-04-14T02:50:44.088Z,8.65
2023-04-14T02:53:10.887Z,12.73
2023-04-14T02:55:41.446Z,12.18
2023-04-14T02:58:08.908Z,13.40
2023-04-14T03:00:37.976Z,11.18
2023-04-14T03:03:05.601Z,10.13
2023-04-14T03:05:33.754Z,5.95
2023-04-14T03:08:04.156Z,13.25
2023-04-14T03:10:32.378Z,10.23
2023-04-14T03:13:16.420Z,16.50
2023-04-14T03:15:44.721Z,17.00
2023-04-14T03:18:15.756Z,12.00
2023-04-14T03:20:45.260Z,15.20
2023-04-14T03:23:20.183Z,10.68
2023-04-14T03:25:47.908Z,8.80
2023-04-14T03:28:28.297Z,14.13
2023-04-14T03:30:56.784Z,9.48
2023-04-14T03:33:29.042Z,9.45
2023-04-14T03:35:58.048Z,7.20
2023-04-14T03:38:28.051Z,7.63
2023-04-14T03:40:59.738Z,8.18
2023-04-14T03:43:28.677Z,11.70
2023-04-14T03:46:06.714Z,12.52
2023-04-14T03:48:36.789Z,10.52
2023-04-14T03:51:06.032Z,11.35
2023-04-14T03:53:44.213Z,5.65
2023-04-14T03:56:13.472Z,16.25
2023-04-14T03:58:43.210Z,9.40
2023-04-14T04:01:25.737Z,12.30
2023-04-14T04:03:54.711Z,15.60
2023-04-14T04:06:28.405Z,8.90
2023-04-14T04:08:57.571Z,4.88
2023-04-14T04:11:38.468Z,8.77
2023-04-14T04:14:07.743Z,7.20
2023-04-14T04:16:57.045Z,7.53
2023-04-14T04:19:25.341Z,11.73
2023-04-14T04:21:58.508Z,12.70
2023-04-14T04:24:28.684Z,9.20
2023-04-14T04:26:56.227Z,7.03
2023-04-14T04:29:23.353Z,9.75
2023-04-14T04:31:50.259Z,9.68
2023-04-14T04:34:18.238Z,11.45
2023-04-14T04:36:45.544Z,5.28
2023-04-14T04:39:12.222Z,8.90
2023-04-14T04:41:38.928Z,7.38
2023-04-14T04:44:05.794Z,5.78
2023-04-14T04:46:55.340Z,9.90
2023-04-14T04:49:34.050Z,7.57
2023-04-14T04:52:00.706Z,13.13
2023-04-14T04:54:27.361Z,6.63
2023-04-14T04:56:54.095Z,7.35
2023-04-14T04:59:20.746Z,6.22
2023-04-14T05:01:47.595Z,6.10
2023-04-14T05:04:14.497Z,8.93
2023-04-14T05:06:48.746Z,15.15
2023-04-14T05:09:15.425Z,8.55
2023-04-14T05:11:42.380Z,10.52
2023-04-14T05:14:09.136Z,10.88
2023-04-14T05:16:36.247Z,9.90
2023-04-14T05:19:03.366Z,4.13
2023-04-14T05:21:30.270Z,6.57
2023-04-14T05:23:56.939Z,10.07
2023-04-14T05:28:53.123Z,8.68
2023-04-14T05:31:20.406Z,7.45
2023-04-14T05:33:47.217Z,8.38
2023-04-14T05:36:14.018Z,8.13
2023-04-14T05:38:40.687Z,9.32
2023-04-14T05:41:07.748Z,11.02
2023-04-14T05:43:34.690Z,8.73
2023-04-14T05:46:01.599Z,15.65
2023-04-14T05:48:30.522Z,8.23
2023-04-14T05:51:29.447Z,6.70
2023-04-14T05:53:56.141Z,14.43
2023-04-14T05:56:22.805Z,4.97
2023-04-14T05:58:49.595Z,9.30
2023-04-14T06:01:16.386Z,6.13
2023-04-14T06:04:08.793Z,13.55
2023-04-14T06:06:35.986Z,9.88
2023-04-14T06:09:02.771Z,10.32
2023-04-14T06:11:29.558Z,4.53
2023-04-14T06:13:56.567Z,9.85
2023-04-14T06:16:23.373Z,13.70
2023-04-14T06:18:50.101Z,10.85
2023-04-14T06:21:16.727Z,9.55
2023-04-14T06:23:43.428Z,7.30
2023-04-14T06:26:10.393Z,3.65
2023-04-14T06:28:37.094Z,5.45
2023-04-14T06:31:21.647Z,7.88
2023-04-14T06:33:48.371Z,5.13
2023-04-14T06:36:21.066Z,3.38
2023-04-14T06:38:47.745Z,8.23
2023-04-14T06:41:14.396Z,8.52
2023-04-14T06:43:42.685Z,7.18
2023-04-14T06:46:09.359Z,10.18
2023-04-14T06:48:36.493Z,13.05
2023-04-14T06:51:03.810Z,6.07
2023-04-14T06:53:30.656Z,7.47
2023-04-14T06:56:01.762Z,6.22
2023-04-14T06:58:29.401Z,7.85
2023-04-14T07:00:57.438Z,7.63
2023-04-14T07:03:24.943Z,6.10
2023-04-14T07:05:52.968Z,7.57
2023-04-14T07:08:20.574Z,5.05
2023-04-14T07:10:47.925Z,2.95
2023-04-14T07:13:14.707Z,7.65
2023-04-14T07:15:46.972Z,5.72
2023-04-14T07:20:41.011Z,7.82
2023-04-14T07:23:07.798Z,5.13
2023-04-14T07:25:36.771Z,6.18
2023-04-14T07:28:04.520Z,7.95
2023-04-14T07:30:31.922Z,1.92
2023-04-14T07:32:59.035Z,10.32
2023-04-14T07:35:26.561Z,8.25
2023-04-14T07:37:53.316Z,3.33
2023-04-14T07:40:20.308Z,6.18
2023-04-14T07:42:47.812Z,3.08
2023-04-14T07:45:14.541Z,5.88
2023-04-14T07:47:41.790Z,4.15
2023-04-14T07:50:08.872Z,7.63
2023-04-14T07:52:35.627Z,6.50
2023-04-14T07:55:02.575Z,8.15
2023-04-14T07:57:29.204Z,9.30
2023-04-14T07:59:55.904Z,8.55
2023-04-14T08:02:22.886Z,4.85
2023-04-14T08:04:49.930Z,5.65
2023-04-14T08:07:33.604Z,2.40
2023-04-14T08:10:00.387Z,2.53
2023-04-14T08:12:27.119Z,8.18
2023-04-14T08:14:54.371Z,5.82
2023-04-14T08:17:21.477Z,4.55
2023-04-14T08:19:48.139Z,12.52
2023-04-14T08:22:14.882Z,7.45
2023-04-14T08:24:41.858Z,4.55
2023-04-14T08:27:08.540Z,3.40
2023-04-14T08:29:35.524Z,11.13
2023-04-14T08:32:02.705Z,3.28
2023-04-14T08:34:29.918Z,11.85
2023-04-14T08:36:56.715Z,9.25
2023-04-14T08:39:23.448Z,14.43
2023-04-14T08:41:52.280Z,7.35
2023-04-14T08:44:19.057Z,3.50
2023-04-14T08:46:47.717Z,3.70
2023-04-14T08:49:26.677Z,10.57
2023-04-14T08:51:54.719Z,9.15
2023-04-14T08:54:21.618Z,6.03
2023-04-14T08:56:49.115Z,7.00
2023-04-14T08:59:18.973Z,4.93
2023-04-14T09:01:46.511Z,7.55
2023-04-14T09:04:14.536Z,7.97
2023-04-14T09:06:41.400Z,7.40
2023-04-14T09:09:08.835Z,7.05
2023-04-14T09:11:36.358Z,11.57
2023-04-14T09:14:04.091Z,7.10
2023-04-14T09:16:32.220Z,10.13
2023-04-14T09:19:07.104Z,4.25
2023-04-14T09:21:53.368Z,4.63
2023-04-14T09:24:32.376Z,6.38
2023-04-14T09:27:05.218Z,3.30
2023-04-14T09:29:38.070Z,4.43
2023-04-14T09:32:06.704Z,9.32
2023-04-14T09:34:33.454Z,4.35
2023-04-14T09:37:07.528Z,4.28
2023-04-14T09:39:35.757Z,5.15
2023-04-14T09:42:03.679Z,4.38
2023-04-14T09:44:30.686Z,4.88
2023-04-14T09:47:02.679Z,9.15
2023-04-14T09:49:29.988Z,3.13
2023-04-14T09:52:07.391Z,5.25
2023-04-14T09:54:34.449Z,4.90
2023-04-14T09:57:02.490Z,10.60
2023-04-14T09:59:34.050Z,3.67
2023-04-14T10:02:05.590Z,4.03
2023-04-14T10:04:32.718Z,6.13
2023-04-14T10:06:59.667Z,5.53
2023-04-14T10:09:28.754Z,4.25
2023-04-14T10:12:14.596Z,11.60
2023-04-14T10:14:43.048Z,4.75
2023-04-14T10:17:10.595Z,9.30
2023-04-14T10:19:37.931Z,11.98
2023-04-14T10:22:06.262Z,10.65
2023-04-14T10:24:33.800Z,7.45
2023-04-14T10:27:02.953Z,5.40
2023-04-14T10:29:30.935Z,5.55
2023-04-14T10:32:07.121Z,4.03
2023-04-14T10:34:34.595Z,3.90
2023-04-14T10:37:15.035Z,4.00
2023-04-14T10:39:42.963Z,9.57
2023-04-14T10:42:09.839Z,7.18
2023-04-14T10:44:36.854Z,6.63
2023-04-14T10:47:07.374Z,3.90
2023-04-14T10:49:39.035Z,7.28
2023-04-14T10:52:27.427Z,14.80
2023-04-14T10:55:03.535Z,8.20
2023-04-14T10:57:30.481Z,12.07
2023-04-14T11:00:00.718Z,10.35
2023-04-14T11:02:32.520Z,6.90
2023-04-14T11:05:00.517Z,2.28
2023-04-14T11:07:28.914Z,4.75
2023-04-14T11:10:19.176Z,4.82
2023-04-14T11:12:47.221Z,5.47
2023-04-14T11:15:15.375Z,5.90
2023-04-14T11:17:43.625Z,8.98
2023-04-14T11:20:21.070Z,3.70
2023-04-14T11:22:52.450Z,5.13
2023-04-14T11:25:23.965Z,7.50
2023-04-14T11:30:20.419Z,7.75
2023-04-14T11:32:52.125Z,17.98
2023-04-14T11:35:20.753Z,6.20
2023-04-14T11:37:47.639Z,6.78
2023-04-14T11:40:15.733Z,2.08
2023-04-14T11:42:49.188Z,7.50
2023-04-14T11:45:16.119Z,8.55
2023-04-14T11:47:59.269Z,4.18
2023-04-14T11:50:27.490Z,6.85
2023-04-14T11:52:55.412Z,5.80
2023-04-14T11:55:25.087Z,8.73
2023-04-14T11:57:52.265Z,5.28
2023-04-14T12:00:19.362Z,4.63
2023-04-14T12:02:46.730Z,9.38
2023-04-14T12:05:18.755Z,3.55
2023-04-14T12:07:47.455Z,8.57
2023-04-14T12:10:15.286Z,5.80
2023-04-14T12:12:42.532Z,10.27
2023-04-14T12:15:10.018Z,5.85
2023-04-14T12:17:37.286Z,10.32
2023-04-14T12:20:05.468Z,7.88
2023-04-14T12:22:32.401Z,7.45
2023-04-14T12:24:59.393Z,2.47
2023-04-14T12:27:27.465Z,4.78
2023-04-14T12:29:54.331Z,11.00
2023-04-14T12:32:22.546Z,6.13
2023-04-14T12:34:57.837Z,6.25
2023-04-14T12:37:28.658Z,3.78
2023-04-14T12:40:00.503Z,8.50
2023-04-14T12:42:28.094Z,8.93
2023-04-14T12:44:59.254Z,3.85
2023-04-14T12:47:34.334Z,6.75
2023-04-14T12:50:21.600Z,7.00
2023-04-14T12:52:48.528Z,6.95
2023-04-14T12:55:31.155Z,7.80
2023-04-14T12:57:58.934Z,7.80
2023-04-14T13:00:27.678Z,5.60
2023-04-14T13:02:57.658Z,3.80
2023-04-14T13:05:24.574Z,5.63
2023-04-14T13:07:51.385Z,5.47
2023-04-14T13:10:18.413Z,3.63
2023-04-14T13:12:45.026Z,3.42
2023-04-14T13:15:27.980Z,5.65
2023-04-14T13:18:00.628Z,2.58
2023-04-14T13:20:30.449Z,8.93
2023-04-14T13:22:57.318Z,5.10
2023-04-14T13:25:24.381Z,4.85
2023-04-14T13:27:51.435Z,4.15
2023-04-14T13:30:18.169Z,4.18
2023-04-14T13:32:45.078Z,3.92
2023-04-14T13:35:11.779Z,4.03
2023-04-14T13:37:38.601Z,4.30
2023-04-14T13:40:13.405Z,4.43
2023-04-14T13:42:40.053Z,5.32
2023-04-14T13:45:07.739Z,8.02
2023-04-14T13:47:34.606Z,2.95
2023-04-14T13:50:01.413Z,10.55
2023-04-14T13:52:28.112Z,5.30
2023-04-14T13:54:54.731Z,4.22
2023-04-14T13:57:21.840Z,3.40
2023-04-14T13:59:48.490Z,4.03
2023-04-14T14:02:15.535Z,8.70
2023-04-14T14:04:43.163Z,5.68
2023-04-14T14:07:09.818Z,3.30
2023-04-14T14:09:36.439Z,7.30
2023-04-14T14:12:09.753Z,7.72
2023-04-14T14:14:36.444Z,7.43
2023-04-14T14:17:03.117Z,2.85
2023-04-14T14:19:29.910Z,5.57
2023-04-14T14:21:56.650Z,4.40
2023-04-14T14:24:23.308Z,5.90
2023-04-14T14:26:50.280Z,5.07
2023-04-14T14:29:16.908Z,3.88
2023-04-14T14:31:43.709Z,6.65
2023-04-14T14:34:10.678Z,4.30
2023-04-14T14:36:37.460Z,4.18
2023-04-14T14:39:04.235Z,8.35
2023-04-14T14:41:31.111Z,8.73
2023-04-14T14:44:01.500Z,9.30
2023-04-14T14:46:28.625Z,4.07
2023-04-14T14:48:55.862Z,4.97
2023-04-14T14:51:23.998Z,3.92
2023-04-14T14:53:50.736Z,7.03
2023-04-14T14:56:18.355Z,7.88
2023-04-14T14:58:45.008Z,4.80
2023-04-14T15:01:11.793Z,2.15
2023-04-14T15:03:38.626Z,4.75
2023-04-14T15:06:06.087Z,5.93
2023-04-14T15:08:33.089Z,8.50
2023-04-14T15:10:59.718Z,3.95
2023-04-14T15:13:27.480Z,4.65
2023-04-14T15:15:59.728Z,2.95
2023-04-14T15:18:26.390Z,5.78
2023-04-14T15:20:54.336Z,3.33
2023-04-14T15:23:21.046Z,4.15
2023-04-14T15:25:47.726Z,5.43
2023-04-14T15:28:14.638Z,5.82
2023-04-14T15:30:41.638Z,4.72
2023-04-14T15:33:08.390Z,9.95
2023-04-14T15:35:39.410Z,5.72
2023-04-14T15:38:07.025Z,2.22
2023-04-14T15:40:33.702Z,4.80
2023-04-14T15:43:00.834Z,8.35
2023-04-14T15:45:27.506Z,6.47
2023-04-14T15:47:54.207Z,5.43
2023-04-14T15:50:20.967Z,6.57
2023-04-14T15:52:47.760Z,6.45
2023-04-14T15:55:14.502Z,3.80
2023-04-14T15:57:41.249Z,3.28
2023-04-14T16:00:08.656Z,7.70
2023-04-14T16:02:35.861Z,3.05
2023-04-14T16:05:05.043Z,3.58
2023-04-14T16:07:35.268Z,6.90
2023-04-14T16:10:02.021Z,2.83
2023-04-14T16:12:30.092Z,4.20
2023-04-14T16:14:57.136Z,13.23
2023-04-14T16:17:24.038Z,3.80
2023-04-14T16:19:53.861Z,6.00
2023-04-14T16:22:20.583Z,4.50
2023-04-14T16:24:47.224Z,3.47
2023-04-14T16:27:13.892Z,5.10
2023-04-14T16:29:41.574Z,3.95
2023-04-14T16:32:08.350Z,3.35
2023-04-14T16:34:35.378Z,3.67
2023-04-14T16:37:02.032Z,7.20
2023-04-14T16:39:29.924Z,6.50
2023-04-14T16:41:57.224Z,3.42
2023-04-14T16:44:23.912Z,4.60
2023-04-14T16:46:51.069Z,3.03
2023-04-14T16:49:17.995Z,3.75
2023-04-14T16:51:44.666Z,2.97
2023-04-14T16:54:17.354Z,6.35
2023-04-14T16:56:45.357Z,7.13
2023-04-14T16:59:12.016Z,4.85
2023-04-14T17:01:38.889Z,2.15
2023-04-14T17:04:06.347Z,3.42
2023-04-14T17:06:33.167Z,6.60
2023-04-14T17:09:00.851Z,5.60
2023-04-14T17:11:27.460Z,5.13
2023-04-14T17:13:54.596Z,1.90
2023-04-14T17:16:21.233Z,9.65
2023-04-14T17:18:48.263Z,3.22
2023-04-14T17:21:14.866Z,4.88
2023-04-14T17:23:41.588Z,2.95
2023-04-14T17:26:08.431Z,3.70
2023-04-14T17:28:35.701Z,4.70
2023-04-14T17:31:06.065Z,5.95
2023-04-14T17:33:32.782Z,4.13
2023-04-14T17:35:59.614Z,6.07
2023-04-14T17:38:26.395Z,4.28
2023-04-14T17:40:54.512Z,4.07
2023-04-14T17:43:21.258Z,4.68
2023-04-14T17:45:50.311Z,1.25
2023-04-14T17:48:18.026Z,4.32
2023-04-14T17:50:45.216Z,5.35
2023-04-14T17:53:13.463Z,2.65
2023-04-14T17:55:40.584Z,2.78
2023-04-14T17:58:07.310Z,2.33
2023-04-14T18:00:34.141Z,9.10
2023-04-14T18:03:01.430Z,3.45
2023-04-14T18:05:28.277Z,3.72
2023-04-14T18:07:55.662Z,2.33
2023-04-14T18:10:22.453Z,5.95
2023-04-14T18:12:49.259Z,7.93
2023-04-14T18:15:16.844Z,2.38
2023-04-14T18:17:43.926Z,3.60
2023-04-14T18:20:11.087Z,4.35
2023-04-14T18:22:38.688Z,3.83
2023-04-14T18:25:09.607Z,5.22
2023-04-14T18:30:07.430Z,5.88
2023-04-14T18:32:34.288Z,5.05
2023-04-14T18:35:01.124Z,2.45
2023-04-14T18:37:27.953Z,6.45
2023-04-14T18:39:55.967Z,4.32
2023-04-14T18:42:22.688Z,3.15
2023-04-14T18:44:49.475Z,6.38
2023-04-14T18:47:17.833Z,5.82
2023-04-14T18:49:44.783Z,10.13
2023-04-14T18:52:12.041Z,5.68
2023-04-14T18:54:38.898Z,5.97
2023-04-14T18:57:06.136Z,6.80
2023-04-14T18:59:33.083Z,10.30
2023-04-14T19:02:00.600Z,6.30
2023-04-14T19:04:27.460Z,6.13
2023-04-14T19:06:54.254Z,6.22
2023-04-14T19:09:20.954Z,4.85
2023-04-14T19:11:48.156Z,6.65
2023-04-14T19:14:14.915Z,11.60
2023-04-14T19:16:41.745Z,7.75
2023-04-14T19:19:08.394Z,13.63
2023-04-14T19:21:35.416Z,9.65
2023-04-14T19:24:02.105Z,13.10
2023-04-14T19:26:29.870Z,9.38
2023-04-14T19:28:58.843Z,8.73
2023-04-14T19:31:28.848Z,10.15
2023-04-14T19:33:56.341Z,10.07
2023-04-14T19:36:23.068Z,10.13
2023-04-14T19:38:49.746Z,8.50
2023-04-14T19:41:16.465Z,11.05
2023-04-14T19:43:43.239Z,8.82
2023-04-14T19:46:12.594Z,7.40
2023-04-14T19:48:39.671Z,10.15
2023-04-14T19:51:06.364Z,8.57
2023-04-14T19:53:33.089Z,9.75
2023-04-14T19:55:59.936Z,7.93
2023-04-14T19:58:28.446Z,12.00
2023-04-14T20:00:58.779Z,10.27
2023-04-14T20:03:33.886Z,10.25
2023-04-14T20:06:01.887Z,10.00
2023-04-14T20:08:34.209Z,6.45
2023-04-14T20:13:35.768Z,8.00
2023-04-14T20:16:02.527Z,21.67
2023-04-14T20:18:29.380Z,13.63
2023-04-14T20:20:56.781Z,8.68
2023-04-14T20:23:23.597Z,14.07
2023-04-14T20:25:50.726Z,12.30
2023-04-14T20:28:19.393Z,5.35
2023-04-14T20:30:48.224Z,13.93
2023-04-14T20:33:16.664Z,7.00
2023-04-14T20:35:43.719Z,9.65
2023-04-14T20:38:14.642Z,8.70
2023-04-14T20:40:42.450Z,8.15
2023-04-14T20:43:09.481Z,6.90
2023-04-14T20:45:36.337Z,5.70
2023-04-14T20:48:03.121Z,6.63
2023-04-14T20:50:29.905Z,5.82
2023-04-14T20:52:57.380Z,5.75
2023-04-14T20:55:24.648Z,4.75
2023-04-14T20:57:51.472Z,5.38
2023-04-14T21:00:18.698Z,6.68
2023-04-14T21:02:49.087Z,4.07
2023-04-14T21:05:17.574Z,7.13
2023-04-14T21:07:45.554Z,7.10
2023-04-14T21:10:13.609Z,9.98
2023-04-14T21:15:00.354Z,6.00
2023-04-14T21:15:50.112Z,4.93
2023-04-14T21:18:14.773Z,5.70
2023-04-14T21:20:43.406Z,5.53
2023-04-14T21:23:10.146Z,4.70
2023-04-14T21:25:37.032Z,7.55
2023-04-14T21:28:03.780Z,9.80
2023-04-14T21:30:31.501Z,9.50
2023-04-14T21:32:58.212Z,4.18
2023-04-14T21:35:25.789Z,2.92
2023-04-14T21:37:52.952Z,8.70
2023-04-14T21:40:20.289Z,4.95
2023-04-14T21:42:46.987Z,8.15
2023-04-14T21:45:14.019Z,5.90
2023-04-14T21:47:41.296Z,12.18
2023-04-14T21:50:09.553Z,7.45
2023-04-14T21:52:36.443Z,4.28
2023-04-14T21:55:03.215Z,8.90
2023-04-14T21:57:48.151Z,5.43
2023-04-14T22:00:17.507Z,8.05
2023-04-14T22:02:45.172Z,4.85
2023-04-14T22:05:12.155Z,3.45
2023-04-14T22:07:39.553Z,5.72
2023-04-14T22:10:07.025Z,9.82
2023-04-14T22:12:37.706Z,5.80
2023-04-14T22:15:06.418Z,8.23
2023-04-14T22:17:41.453Z,15.80
2023-04-14T22:20:09.654Z,9.57
2023-04-14T22:22:36.717Z,6.80
2023-04-14T22:25:04.112Z,6.35
2023-04-14T22:27:31.483Z,6.80
2023-04-14T22:29:58.149Z,3.17
2023-04-14T22:32:24.835Z,2.88
2023-04-14T22:34:51.992Z,6.90
2023-04-14T22:37:18.637Z,12.27
2023-04-14T22:39:45.675Z,10.18
2023-04-14T22:42:13.052Z,9.00
2023-04-14T22:44:39.694Z,4.03
2023-04-14T22:47:06.604Z,8.55
2023-04-14T22:49:33.239Z,8.02
2023-04-14T22:51:59.904Z,7.72
2023-04-14T22:54:27.081Z,4.10
2023-04-14T22:56:53.719Z,4.40
2023-04-14T22:59:20.391Z,5.28
2023-04-14T23:01:48.388Z,12.13
2023-04-14T23:04:15.285Z,7.00
2023-04-14T23:06:42.431Z,5.78
2023-04-14T23:09:09.120Z,6.07
2023-04-14T23:11:35.783Z,3.63
2023-04-14T23:14:03.673Z,10.43
2023-04-14T23:16:31.192Z,14.23
2023-04-14T23:19:06.820Z,4.82
2023-04-14T23:21:33.622Z,7.90
2023-04-14T23:24:00.305Z,6.00
2023-04-14T23:26:28.353Z,8.80
2023-04-14T23:28:55.106Z,10.00
2023-04-14T23:31:21.899Z,9.57
2023-04-14T23:33:50.900Z,3.38
2023-04-14T23:36:17.534Z,5.47
2023-04-14T23:38:44.666Z,11.60
2023-04-14T23:41:11.460Z,6.80
2023-04-14T23:43:39.085Z,5.97
2023-04-14T23:46:05.846Z,10.00
2023-04-14T23:48:32.662Z,8.35
2023-04-14T23:51:17.570Z,5.72
2023-04-14T23:53:46.136Z,5.90
2023-04-14T23:56:13.035Z,10.70
2023-04-14T23:58:39.849Z,7.47
